sensor_id;sensor_type;location;lat;lon;timestamp;pressure;altitude;pressure_sealevel;temperature;humidity
13476;BME280;6810;63.824;20.288;2023-04-19T00:01:31;104058.75;;;4.92;60.10
13476;BME280;6810;63.824;20.288;2023-04-19T00:03:58;104035.66;;;4.82;60.55
13476;BME280;6810;63.824;20.288;2023-04-19T00:06:26;104053.47;;;4.92;60.20
13476;BME280;6810;63.824;20.288;2023-04-19T00:08:56;104051.72;;;4.93;59.90
13476;BME280;6810;63.824;20.288;2023-04-19T00:11:23;104047.31;;;4.92;60.42
13476;BME280;6810;63.824;20.288;2023-04-19T00:13:50;104048.16;;;4.92;60.53
13476;BME280;6810;63.824;20.288;2023-04-19T00:16:17;104044.66;;;4.92;59.61
13476;BME280;6810;63.824;20.288;2023-04-19T00:18:44;104049.06;;;4.93;59.26
13476;BME280;6810;63.824;20.288;2023-04-19T00:21:12;104027.94;;;4.93;59.77
13476;BME280;6810;63.824;20.288;2023-04-19T00:23:39;104034.94;;;4.91;60.62
13476;BME280;6810;63.824;20.288;2023-04-19T00:26:06;104019.91;;;4.88;59.88
13476;BME280;6810;63.824;20.288;2023-04-19T00:28:33;104020.03;;;4.94;60.79
13476;BME280;6810;63.824;20.288;2023-04-19T00:31:00;103955.00;;;4.55;59.94
13476;BME280;6810;63.824;20.288;2023-04-19T00:33:29;104027.97;;;4.96;59.51
13476;BME280;6810;63.824;20.288;2023-04-19T00:35:56;104020.06;;;4.96;59.57
13476;BME280;6810;63.824;20.288;2023-04-19T00:38:24;103995.91;;;4.76;60.45
13476;BME280;6810;63.824;20.288;2023-04-19T00:40:51;104018.19;;;4.89;61.02
13476;BME280;6810;63.824;20.288;2023-04-19T00:43:18;104019.00;;;4.86;59.85
13476;BME280;6810;63.824;20.288;2023-04-19T00:45:47;104019.03;;;4.88;60.94
13476;BME280;6810;63.824;20.288;2023-04-19T00:48:15;104000.31;;;4.76;61.18
13476;BME280;6810;63.824;20.288;2023-04-19T00:50:44;104022.56;;;4.88;60.81
13476;BME280;6810;63.824;20.288;2023-04-19T00:53:11;104023.44;;;4.87;60.35
13476;BME280;6810;63.824;20.288;2023-04-19T00:55:39;104009.25;;;4.84;60.86
13476;BME280;6810;63.824;20.288;2023-04-19T00:58:07;104014.53;;;4.82;61.23
13476;BME280;6810;63.824;20.288;2023-04-19T01:00:35;103954.03;;;4.50;60.80
13476;BME280;6810;63.824;20.288;2023-04-19T01:03:02;104012.75;;;4.81;61.40
13476;BME280;6810;63.824;20.288;2023-04-19T01:05:30;104011.88;;;4.82;60.62
13476;BME280;6810;63.824;20.288;2023-04-19T01:07:57;104022.47;;;4.84;60.04
13476;BME280;6810;63.824;20.288;2023-04-19T01:10:25;103934.44;;;4.39;60.97
13476;BME280;6810;63.824;20.288;2023-04-19T01:12:52;104011.91;;;4.84;60.95
13476;BME280;6810;63.824;20.288;2023-04-19T01:15:19;104010.13;;;4.83;60.46
13476;BME280;6810;63.824;20.288;2023-04-19T01:17:48;104011.84;;;4.81;60.01
13476;BME280;6810;63.824;20.288;2023-04-19T01:20:15;104015.34;;;4.80;60.31
13476;BME280;6810;63.824;20.288;2023-04-19T01:22:43;104013.53;;;4.77;61.23
13476;BME280;6810;63.824;20.288;2023-04-19T01:25:10;104015.25;;;4.75;61.46
13476;BME280;6810;63.824;20.288;2023-04-19T01:27:37;103995.81;;;4.70;60.79
13476;BME280;6810;63.824;20.288;2023-04-19T01:30:04;103932.50;;;4.29;61.36
13476;BME280;6810;63.824;20.288;2023-04-19T01:32:32;104004.56;;;4.69;61.08
13476;BME280;6810;63.824;20.288;2023-04-19T01:34:59;104001.88;;;4.66;60.36
13476;BME280;6810;63.824;20.288;2023-04-19T01:37:29;104004.47;;;4.63;61.10
13476;BME280;6810;63.824;20.288;2023-04-19T01:39:56;104000.03;;;4.61;61.78
13476;BME280;6810;63.824;20.288;2023-04-19T01:42:23;104003.50;;;4.58;60.52
13476;BME280;6810;63.824;20.288;2023-04-19T01:44:51;103998.13;;;4.54;61.39
13476;BME280;6810;63.824;20.288;2023-04-19T01:47:18;103968.63;;;4.31;61.56
13476;BME280;6810;63.824;20.288;2023-04-19T01:49:45;103999.66;;;4.41;61.82
13476;BME280;6810;63.824;20.288;2023-04-19T01:52:14;104002.22;;;4.38;62.06
13476;BME280;6810;63.824;20.288;2023-04-19T01:54:41;104000.41;;;4.36;61.90
13476;BME280;6810;63.824;20.288;2023-04-19T01:57:08;103995.09;;;4.34;62.40
13476;BME280;6810;63.824;20.288;2023-04-19T01:59:35;103987.06;;;4.30;61.10
13476;BME280;6810;63.824;20.288;2023-04-19T02:02:05;103991.53;;;4.31;62.31
13476;BME280;6810;63.824;20.288;2023-04-19T02:04:33;103989.69;;;4.28;62.55
13476;BME280;6810;63.824;20.288;2023-04-19T02:07:00;103988.78;;;4.26;62.49
13476;BME280;6810;63.824;20.288;2023-04-19T02:09:28;103983.38;;;4.20;61.45
13476;BME280;6810;63.824;20.288;2023-04-19T02:11:54;103966.47;;;4.11;61.62
13476;BME280;6810;63.824;20.288;2023-04-19T02:14:21;103978.03;;;4.17;62.20
13476;BME280;6810;63.824;20.288;2023-04-19T02:16:48;103968.34;;;4.18;61.96
13476;BME280;6810;63.824;20.288;2023-04-19T02:19:16;103970.03;;;4.14;62.20
13476;BME280;6810;63.824;20.288;2023-04-19T02:21:43;103974.41;;;4.12;61.56
13476;BME280;6810;63.824;20.288;2023-04-19T02:24:13;103967.31;;;4.10;61.49
13476;BME280;6810;63.824;20.288;2023-04-19T02:26:41;103936.97;;;3.88;62.81
13476;BME280;6810;63.824;20.288;2023-04-19T02:29:08;103965.41;;;4.03;61.54
13476;BME280;6810;63.824;20.288;2023-04-19T02:31:37;103960.09;;;4.01;62.34
13476;BME280;6810;63.824;20.288;2023-04-19T02:34:08;103960.03;;;3.98;62.31
13476;BME280;6810;63.824;20.288;2023-04-19T02:36:35;103959.91;;;3.92;62.60
13476;BME280;6810;63.824;20.288;2023-04-19T02:39:02;103961.63;;;3.90;62.63
13476;BME280;6810;63.824;20.288;2023-04-19T02:41:31;103954.50;;;3.86;62.51
13476;BME280;6810;63.824;20.288;2023-04-19T02:44:00;103949.94;;;3.79;62.48
13476;BME280;6810;63.824;20.288;2023-04-19T02:46:27;103934.00;;;3.75;61.96
13476;BME280;6810;63.824;20.288;2023-04-19T02:48:55;103942.84;;;3.77;62.60
13476;BME280;6810;63.824;20.288;2023-04-19T02:51:22;103942.78;;;3.74;62.81
13476;BME280;6810;63.824;20.288;2023-04-19T02:53:49;103946.28;;;3.71;62.80
13476;BME280;6810;63.824;20.288;2023-04-19T02:56:16;103936.28;;;3.58;62.80
13476;BME280;6810;63.824;20.288;2023-04-19T02:58:44;103944.38;;;3.66;62.07
13476;BME280;6810;63.824;20.288;2023-04-19T03:01:11;103957.50;;;3.63;62.10
13476;BME280;6810;63.824;20.288;2023-04-19T03:03:38;103951.31;;;3.61;63.46
13476;BME280;6810;63.824;20.288;2023-04-19T03:06:05;103938.72;;;3.49;62.86
13476;BME280;6810;63.824;20.288;2023-04-19T03:08:32;103949.28;;;3.49;62.70
13476;BME280;6810;63.824;20.288;2023-04-19T03:10:59;103951.06;;;3.51;62.44
13476;BME280;6810;63.824;20.288;2023-04-19T03:13:29;103944.91;;;3.49;63.66
13476;BME280;6810;63.824;20.288;2023-04-19T03:15:56;103944.84;;;3.46;63.19
13476;BME280;6810;63.824;20.288;2023-04-19T03:18:23;103943.00;;;3.44;63.34
13476;BME280;6810;63.824;20.288;2023-04-19T03:20:53;103932.31;;;3.38;63.42
13476;BME280;6810;63.824;20.288;2023-04-19T03:23:21;103920.66;;;3.27;63.45
13476;BME280;6810;63.824;20.288;2023-04-19T03:25:49;103906.28;;;3.13;63.23
13476;BME280;6810;63.824;20.288;2023-04-19T03:28:31;103898.38;;;3.13;63.91
13476;BME280;6810;63.824;20.288;2023-04-19T03:31:34;103929.44;;;3.27;63.77
13476;BME280;6810;63.824;20.288;2023-04-19T03:34:02;103889.41;;;3.06;63.47
13476;BME280;6810;63.824;20.288;2023-04-19T03:36:38;103919.69;;;3.23;63.89
13476;BME280;6810;63.824;20.288;2023-04-19T03:39:06;103917.94;;;3.22;63.38
13476;BME280;6810;63.824;20.288;2023-04-19T03:41:35;103920.44;;;3.19;63.16
13476;BME280;6810;63.824;20.288;2023-04-19T03:44:21;103884.00;;;3.00;62.97
13476;BME280;6810;63.824;20.288;2023-04-19T03:46:48;103913.34;;;3.15;63.53
13476;BME280;6810;63.824;20.288;2023-04-19T03:49:20;103911.53;;;3.13;63.34
13476;BME280;6810;63.824;20.288;2023-04-19T03:51:52;103909.66;;;3.09;63.42
13476;BME280;6810;63.824;20.288;2023-04-19T03:54:19;103915.88;;;3.11;63.70
13476;BME280;6810;63.824;20.288;2023-04-19T03:56:46;103907.91;;;3.08;63.92
13476;BME280;6810;63.824;20.288;2023-04-19T03:59:14;103902.63;;;3.08;63.90
13476;BME280;6810;63.824;20.288;2023-04-19T04:01:42;103899.84;;;3.02;64.17
13476;BME280;6810;63.824;20.288;2023-04-19T04:04:09;103902.53;;;3.03;64.57
13476;BME280;6810;63.824;20.288;2023-04-19T04:06:38;103896.16;;;2.95;64.80
13476;BME280;6810;63.824;20.288;2023-04-19T04:09:05;103904.19;;;3.00;65.01
13476;BME280;6810;63.824;20.288;2023-04-19T04:11:33;103895.22;;;2.92;64.05
13476;BME280;6810;63.824;20.288;2023-04-19T04:14:01;103902.44;;;3.00;65.00
13476;BME280;6810;63.824;20.288;2023-04-19T04:16:31;103905.09;;;3.00;64.07
13476;BME280;6810;63.824;20.288;2023-04-19T04:19:01;103901.53;;;3.00;64.98
13476;BME280;6810;63.824;20.288;2023-04-19T04:21:30;103900.78;;;3.04;67.06
13476;BME280;6810;63.824;20.288;2023-04-19T04:24:00;103905.16;;;3.03;66.84
13476;BME280;6810;63.824;20.288;2023-04-19T04:27:03;103891.06;;;3.03;66.61
13476;BME280;6810;63.824;20.288;2023-04-19T04:29:33;103900.81;;;3.05;65.46
13476;BME280;6810;63.824;20.288;2023-04-19T04:32:05;103891.16;;;3.06;66.24
13476;BME280;6810;63.824;20.288;2023-04-19T04:34:37;103892.94;;;3.07;65.64
13476;BME280;6810;63.824;20.288;2023-04-19T04:37:08;103874.31;;;2.98;65.08
13476;BME280;6810;63.824;20.288;2023-04-19T04:39:37;103871.72;;;3.01;64.89
13476;BME280;6810;63.824;20.288;2023-04-19T04:42:07;103858.38;;;2.93;65.66
13476;BME280;6810;63.824;20.288;2023-04-19T04:44:35;103877.09;;;3.05;66.08
13476;BME280;6810;63.824;20.288;2023-04-19T04:47:04;103883.31;;;3.09;65.87
13476;BME280;6810;63.824;20.288;2023-04-19T04:49:37;103877.97;;;3.06;65.50
13476;BME280;6810;63.824;20.288;2023-04-19T04:52:04;103872.75;;;3.07;65.12
13476;BME280;6810;63.824;20.288;2023-04-19T04:54:37;103871.09;;;3.12;64.90
13476;BME280;6810;63.824;20.288;2023-04-19T04:57:13;103879.00;;;3.12;64.94
13476;BME280;6810;63.824;20.288;2023-04-19T04:59:41;103878.09;;;3.10;65.22
13476;BME280;6810;63.824;20.288;2023-04-19T05:02:09;103874.50;;;3.07;65.41
13476;BME280;6810;63.824;20.288;2023-04-19T05:04:37;103891.47;;;3.19;65.65
13476;BME280;6810;63.824;20.288;2023-04-19T05:07:05;103865.88;;;3.14;65.55
13476;BME280;6810;63.824;20.288;2023-04-19T05:09:32;103871.31;;;3.21;65.58
13476;BME280;6810;63.824;20.288;2023-04-19T05:11:59;103885.47;;;3.25;65.48
13476;BME280;6810;63.824;20.288;2023-04-19T05:14:28;103884.69;;;3.30;66.13
13476;BME280;6810;63.824;20.288;2023-04-19T05:16:55;103886.53;;;3.33;64.93
13476;BME280;6810;63.824;20.288;2023-04-19T05:19:22;103878.56;;;3.30;66.10
13476;BME280;6810;63.824;20.288;2023-04-19T05:21:55;103880.50;;;3.38;65.84
13476;BME280;6810;63.824;20.288;2023-04-19T05:24:22;103883.16;;;3.40;65.69
13476;BME280;6810;63.824;20.288;2023-04-19T05:26:50;103881.50;;;3.43;65.92
13476;BME280;6810;63.824;20.288;2023-04-19T05:29:17;103879.78;;;3.47;66.02
13476;BME280;6810;63.824;20.288;2023-04-19T05:31:47;103877.22;;;3.50;65.99
13476;BME280;6810;63.824;20.288;2023-04-19T05:34:18;103863.88;;;3.42;65.12
13476;BME280;6810;63.824;20.288;2023-04-19T05:36:48;103884.41;;;3.57;65.02
13476;BME280;6810;63.824;20.288;2023-04-19T05:39:15;103873.94;;;3.60;65.91
13476;BME280;6810;63.824;20.288;2023-04-19T05:41:43;103847.28;;;3.46;65.21
13476;BME280;6810;63.824;20.288;2023-04-19T05:44:10;103879.25;;;3.63;65.61
13476;BME280;6810;63.824;20.288;2023-04-19T05:46:37;103879.41;;;3.71;65.28
13476;BME280;6810;63.824;20.288;2023-04-19T05:49:07;103872.41;;;3.71;65.18
13476;BME280;6810;63.824;20.288;2023-04-19T05:52:03;103883.13;;;3.79;66.06
13476;BME280;6810;63.824;20.288;2023-04-19T05:54:46;103877.97;;;3.85;65.77
13476;BME280;6810;63.824;20.288;2023-04-19T05:57:13;103885.97;;;3.89;65.64
13476;BME280;6810;63.824;20.288;2023-04-19T05:59:41;103886.94;;;3.93;66.12
13476;BME280;6810;63.824;20.288;2023-04-19T06:02:09;103889.69;;;3.99;65.57
13476;BME280;6810;63.824;20.288;2023-04-19T06:04:36;103876.56;;;4.03;64.87
13476;BME280;6810;63.824;20.288;2023-04-19T06:07:04;103864.16;;;3.99;65.67
13476;BME280;6810;63.824;20.288;2023-04-19T06:09:43;103877.59;;;4.11;64.83
13476;BME280;6810;63.824;20.288;2023-04-19T06:12:10;103875.91;;;4.15;65.04
13476;BME280;6810;63.824;20.288;2023-04-19T06:14:37;103885.72;;;4.20;64.50
13476;BME280;6810;63.824;20.288;2023-04-19T06:17:04;103865.50;;;4.24;65.24
13476;BME280;6810;63.824;20.288;2023-04-19T06:19:31;103837.94;;;4.08;64.18
13476;BME280;6810;63.824;20.288;2023-04-19T06:21:59;103874.50;;;4.35;64.98
13476;BME280;6810;63.824;20.288;2023-04-19T06:24:27;103851.56;;;4.31;64.42
13476;BME280;6810;63.824;20.288;2023-04-19T06:26:55;103870.28;;;4.44;64.69
13476;BME280;6810;63.824;20.288;2023-04-19T06:29:22;103862.47;;;4.50;65.24
13476;BME280;6810;63.824;20.288;2023-04-19T06:31:50;103827.97;;;4.40;64.79
13476;BME280;6810;63.824;20.288;2023-04-19T06:34:17;103855.59;;;4.60;65.10
13476;BME280;6810;63.824;20.288;2023-04-19T06:36:44;103727.78;;;3.97;63.64
13476;BME280;6810;63.824;20.288;2023-04-19T06:39:11;103841.72;;;4.73;64.81
13476;BME280;6810;63.824;20.288;2023-04-19T06:41:38;103849.78;;;4.82;64.44
13476;BME280;6810;63.824;20.288;2023-04-19T06:44:05;103856.06;;;4.90;63.79
13476;BME280;6810;63.824;20.288;2023-04-19T06:46:33;103855.28;;;4.97;64.04
13476;BME280;6810;63.824;20.288;2023-04-19T06:48:59;103766.66;;;4.62;63.77
13476;BME280;6810;63.824;20.288;2023-04-19T06:51:26;103850.19;;;5.09;63.27
13476;BME280;6810;63.824;20.288;2023-04-19T06:53:53;103848.56;;;5.18;64.04
13476;BME280;6810;63.824;20.288;2023-04-19T06:56:43;103840.75;;;5.27;63.21
13476;BME280;6810;63.824;20.288;2023-04-19T06:59:18;103829.38;;;5.33;63.64
13476;BME280;6810;63.824;20.288;2023-04-19T07:01:46;103841.03;;;5.47;63.64
13476;BME280;6810;63.824;20.288;2023-04-19T07:04:14;103826.97;;;5.51;62.58
13476;BME280;6810;63.824;20.288;2023-04-19T07:06:42;103835.06;;;5.65;62.03
13476;BME280;6810;63.824;20.288;2023-04-19T07:09:09;103830.72;;;5.68;62.34
13476;BME280;6810;63.824;20.288;2023-04-19T07:11:36;103805.97;;;5.66;61.56
13476;BME280;6810;63.824;20.288;2023-04-19T07:14:03;103821.25;;;5.87;61.66
13476;BME280;6810;63.824;20.288;2023-04-19T07:16:30;103819.56;;;5.95;62.29
13476;BME280;6810;63.824;20.288;2023-04-19T07:18:57;103808.97;;;5.95;61.11
13476;BME280;6810;63.824;20.288;2023-04-19T07:21:24;103825.06;;;6.11;61.55
13476;BME280;6810;63.824;20.288;2023-04-19T07:23:54;103812.75;;;6.19;61.17
13476;BME280;6810;63.824;20.288;2023-04-19T07:26:21;103821.66;;;6.27;60.34
13476;BME280;6810;63.824;20.288;2023-04-19T07:28:48;103801.34;;;6.26;60.38
13476;BME280;6810;63.824;20.288;2023-04-19T07:31:17;103810.34;;;6.43;60.74
13476;BME280;6810;63.824;20.288;2023-04-19T07:33:44;103819.22;;;6.51;60.66
13476;BME280;6810;63.824;20.288;2023-04-19T07:36:12;103809.56;;;6.59;60.21
13476;BME280;6810;63.824;20.288;2023-04-19T07:38:39;103811.38;;;6.68;60.15
13476;BME280;6810;63.824;20.288;2023-04-19T07:41:06;103812.34;;;6.77;59.52
13476;BME280;6810;63.824;20.288;2023-04-19T07:43:33;103706.03;;;6.34;59.38
13476;BME280;6810;63.824;20.288;2023-04-19T07:46:01;103799.19;;;6.94;59.74
13476;BME280;6810;63.824;20.288;2023-04-19T07:48:28;103791.28;;;7.04;58.94
13476;BME280;6810;63.824;20.288;2023-04-19T07:50:55;103791.38;;;7.14;58.51
13476;BME280;6810;63.824;20.288;2023-04-19T07:53:22;103792.28;;;7.25;58.94
13476;BME280;6810;63.824;20.288;2023-04-19T07:55:49;103777.28;;;7.30;58.41
13476;BME280;6810;63.824;20.288;2023-04-19T07:58:16;103789.75;;;7.44;58.15
13476;BME280;6810;63.824;20.288;2023-04-19T08:00:43;103785.31;;;7.54;57.85
13476;BME280;6810;63.824;20.288;2023-04-19T08:03:10;103774.72;;;7.63;57.60
13476;BME280;6810;63.824;20.288;2023-04-19T08:05:37;103780.09;;;7.73;57.04
13476;BME280;6810;63.824;20.288;2023-04-19T08:08:04;103770.34;;;7.83;56.82
13476;BME280;6810;63.824;20.288;2023-04-19T08:10:32;103769.50;;;7.88;56.76
13476;BME280;6810;63.824;20.288;2023-04-19T08:12:59;103738.50;;;7.83;56.36
13476;BME280;6810;63.824;20.288;2023-04-19T08:15:33;103763.31;;;8.09;56.09
13476;BME280;6810;63.824;20.288;2023-04-19T08:18:03;103763.31;;;8.21;55.67
13476;BME280;6810;63.824;20.288;2023-04-19T08:20:31;103755.38;;;8.30;55.70
13476;BME280;6810;63.824;20.288;2023-04-19T08:22:59;103760.72;;;8.40;55.55
13476;BME280;6810;63.824;20.288;2023-04-19T08:25:33;103758.03;;;8.51;55.33
13476;BME280;6810;63.824;20.288;2023-04-19T08:28:01;103753.56;;;8.60;54.98
13476;BME280;6810;63.824;20.288;2023-04-19T08:30:27;103751.78;;;8.73;54.76
13476;BME280;6810;63.824;20.288;2023-04-19T08:32:55;103762.41;;;8.83;54.11
13476;BME280;6810;63.824;20.288;2023-04-19T08:35:23;103756.19;;;8.92;53.80
13476;BME280;6810;63.824;20.288;2023-04-19T08:37:51;103759.72;;;9.03;53.62
13476;BME280;6810;63.824;20.288;2023-04-19T08:40:18;103749.88;;;9.13;52.88
13476;BME280;6810;63.824;20.288;2023-04-19T08:42:45;103737.47;;;9.15;52.81
13476;BME280;6810;63.824;20.288;2023-04-19T08:45:15;103744.50;;;9.31;52.92
13476;BME280;6810;63.824;20.288;2023-04-19T08:47:55;103741.81;;;9.40;52.31
13476;BME280;6810;63.824;20.288;2023-04-19T08:50:28;103739.06;;;9.52;52.04
13476;BME280;6810;63.824;20.288;2023-04-19T08:52:58;103742.53;;;9.61;51.77
13476;BME280;6810;63.824;20.288;2023-04-19T08:55:46;103736.31;;;9.65;52.31
13476;BME280;6810;63.824;20.288;2023-04-19T08:58:34;103745.97;;;9.83;51.35
13476;BME280;6810;63.824;20.288;2023-04-19T09:01:21;103749.44;;;9.92;51.53
13476;BME280;6810;63.824;20.288;2023-04-19T09:04:06;103746.72;;;10.03;52.13
13476;BME280;6810;63.824;20.288;2023-04-19T09:06:54;103742.22;;;10.12;51.62
13476;BME280;6810;63.824;20.288;2023-04-19T09:09:25;103737.72;;;10.20;51.94
13476;BME280;6810;63.824;20.288;2023-04-19T09:11:55;103744.75;;;10.29;51.79
13476;BME280;6810;63.824;20.288;2023-04-19T09:14:25;103705.78;;;10.17;51.10
13476;BME280;6810;63.824;20.288;2023-04-19T09:16:52;103734.84;;;10.43;50.57
13476;BME280;6810;63.824;20.288;2023-04-19T09:19:19;103733.91;;;10.48;51.69
13476;BME280;6810;63.824;20.288;2023-04-19T09:21:51;103716.09;;;10.50;51.63
13476;BME280;6810;63.824;20.288;2023-04-19T09:24:37;103723.97;;;10.63;51.15
13476;BME280;6810;63.824;20.288;2023-04-19T09:29:55;103713.13;;;10.79;50.97
13476;BME280;6810;63.824;20.288;2023-04-19T09:32:22;103712.16;;;10.88;50.80
13476;BME280;6810;63.824;20.288;2023-04-19T09:34:57;103710.25;;;10.99;50.33
13476;BME280;6810;63.824;20.288;2023-04-19T09:37:25;103699.44;;;11.09;50.35
13476;BME280;6810;63.824;20.288;2023-04-19T09:40:24;103700.97;;;11.27;50.84
13476;BME280;6810;63.824;20.288;2023-04-19T09:42:53;103704.31;;;11.42;50.25
13476;BME280;6810;63.824;20.288;2023-04-19T09:45:45;103707.63;;;11.62;49.94
13476;BME280;6810;63.824;20.288;2023-04-19T09:48:13;103694.91;;;11.78;49.30
13476;BME280;6810;63.824;20.288;2023-04-19T09:50:57;103687.53;;;11.93;49.63
13476;BME280;6810;63.824;20.288;2023-04-19T09:53:30;103688.16;;;12.07;48.93
13476;BME280;6810;63.824;20.288;2023-04-19T09:56:01;103692.31;;;12.25;48.90
13476;BME280;6810;63.824;20.288;2023-04-19T09:58:30;103614.31;;;12.00;47.84
13476;BME280;6810;63.824;20.288;2023-04-19T10:01:12;103688.28;;;12.52;47.06
13476;BME280;6810;63.824;20.288;2023-04-19T10:03:47;103673.78;;;12.62;47.75
13476;BME280;6810;63.824;20.288;2023-04-19T10:06:17;103666.53;;;12.68;46.90
13476;BME280;6810;63.824;20.288;2023-04-19T10:08:48;103627.47;;;12.58;47.03
13476;BME280;6810;63.824;20.288;2023-04-19T10:11:17;103672.25;;;12.94;46.34
13476;BME280;6810;63.824;20.288;2023-04-19T10:13:46;103660.44;;;13.04;46.14
13476;BME280;6810;63.824;20.288;2023-04-19T10:16:15;103662.00;;;13.16;45.98
13476;BME280;6810;63.824;20.288;2023-04-19T10:18:47;103660.84;;;13.26;45.77
13476;BME280;6810;63.824;20.288;2023-04-19T10:21:16;103636.75;;;13.26;45.92
13476;BME280;6810;63.824;20.288;2023-04-19T10:23:45;103656.78;;;13.46;45.62
13476;BME280;6810;63.824;20.288;2023-04-19T10:26:12;103644.09;;;13.54;45.68
13476;BME280;6810;63.824;20.288;2023-04-19T10:28:41;103602.38;;;13.44;45.35
13476;BME280;6810;63.824;20.288;2023-04-19T10:31:11;103639.09;;;13.76;45.26
13476;BME280;6810;63.824;20.288;2023-04-19T10:33:42;103631.78;;;13.82;44.51
13476;BME280;6810;63.824;20.288;2023-04-19T10:36:13;103633.09;;;14.00;44.39
13476;BME280;6810;63.824;20.288;2023-04-19T10:38:45;103557.09;;;13.67;44.67
13476;BME280;6810;63.824;20.288;2023-04-19T10:41:15;103628.06;;;14.22;44.38
13476;BME280;6810;63.824;20.288;2023-04-19T10:44:07;103626.91;;;14.33;44.17
13476;BME280;6810;63.824;20.288;2023-04-19T10:46:36;103624.16;;;14.35;43.76
13476;BME280;6810;63.824;20.288;2023-04-19T10:49:05;103594.84;;;14.27;43.59
13476;BME280;6810;63.824;20.288;2023-04-19T10:51:38;103620.25;;;14.46;43.27
13476;BME280;6810;63.824;20.288;2023-04-19T10:54:09;103615.81;;;14.45;42.89
13476;BME280;6810;63.824;20.288;2023-04-19T10:56:58;103616.66;;;14.47;43.06
13476;BME280;6810;63.824;20.288;2023-04-19T10:59:28;103612.03;;;14.52;43.17
13476;BME280;6810;63.824;20.288;2023-04-19T11:01:57;103607.28;;;14.62;42.92
13476;BME280;6810;63.824;20.288;2023-04-19T11:07:04;103606.34;;;14.92;42.50
13476;BME280;6810;63.824;20.288;2023-04-19T11:09:36;103606.91;;;15.03;41.73
13476;BME280;6810;63.824;20.288;2023-04-19T11:12:05;103607.63;;;15.09;41.86
13476;BME280;6810;63.824;20.288;2023-04-19T11:14:43;103608.50;;;15.10;41.23
13476;BME280;6810;63.824;20.288;2023-04-19T11:17:24;103602.19;;;15.11;41.31
13476;BME280;6810;63.824;20.288;2023-04-19T11:19:55;103548.38;;;14.85;41.42
13476;BME280;6810;63.824;20.288;2023-04-19T11:24:52;103585.53;;;15.27;40.88
13476;BME280;6810;63.824;20.288;2023-04-19T11:27:20;103573.09;;;15.25;40.44
13476;BME280;6810;63.824;20.288;2023-04-19T11:29:47;103593.28;;;15.38;41.13
13476;BME280;6810;63.824;20.288;2023-04-19T11:32:14;103594.75;;;15.48;41.00
13476;BME280;6810;63.824;20.288;2023-04-19T11:34:41;103587.28;;;15.56;40.16
13476;BME280;6810;63.824;20.288;2023-04-19T11:37:08;103590.47;;;15.69;40.13
13476;BME280;6810;63.824;20.288;2023-04-19T11:39:44;103576.81;;;15.75;39.98
13476;BME280;6810;63.824;20.288;2023-04-19T11:42:16;103580.78;;;15.89;39.70
13476;BME280;6810;63.824;20.288;2023-04-19T11:44:50;103567.97;;;15.96;39.58
13476;BME280;6810;63.824;20.288;2023-04-19T11:47:18;103566.56;;;16.10;39.50
13476;BME280;6810;63.824;20.288;2023-04-19T11:50:34;103561.53;;;16.26;39.73
13476;BME280;6810;63.824;20.288;2023-04-19T11:53:22;103530.19;;;16.23;39.35
13476;BME280;6810;63.824;20.288;2023-04-19T11:56:09;103556.94;;;16.52;39.00
13476;BME280;6810;63.824;20.288;2023-04-19T11:58:57;103553.91;;;16.61;38.98
13476;BME280;6810;63.824;20.288;2023-04-19T12:01:44;103551.63;;;16.74;38.19
13476;BME280;6810;63.824;20.288;2023-04-19T12:04:31;103551.13;;;16.86;38.54
13476;BME280;6810;63.824;20.288;2023-04-19T12:07:18;103544.41;;;16.97;38.39
13476;BME280;6810;63.824;20.288;2023-04-19T12:10:10;103541.16;;;17.11;38.25
13476;BME280;6810;63.824;20.288;2023-04-19T12:12:58;103541.59;;;17.22;37.94
13476;BME280;6810;63.824;20.288;2023-04-19T12:15:45;103533.00;;;17.34;36.96
13476;BME280;6810;63.824;20.288;2023-04-19T12:21:31;103502.78;;;17.48;36.83
13476;BME280;6810;63.824;20.288;2023-04-19T12:24:18;103524.38;;;17.68;36.32
13476;BME280;6810;63.824;20.288;2023-04-19T12:27:06;103520.59;;;17.72;36.46
13476;BME280;6810;63.824;20.288;2023-04-19T12:29:53;103518.44;;;17.80;36.98
13476;BME280;6810;63.824;20.288;2023-04-19T12:32:40;103514.66;;;17.84;36.07
13476;BME280;6810;63.824;20.288;2023-04-19T12:35:27;103510.09;;;17.86;36.55
13476;BME280;6810;63.824;20.288;2023-04-19T12:38:14;103518.09;;;17.87;35.82
13476;BME280;6810;63.824;20.288;2023-04-19T12:41:01;103511.81;;;17.87;36.17
13476;BME280;6810;63.824;20.288;2023-04-19T12:43:48;103516.81;;;17.96;35.74
13476;BME280;6810;63.824;20.288;2023-04-19T12:46:35;103502.25;;;18.00;35.75
13476;BME280;6810;63.824;20.288;2023-04-19T12:49:22;103498.53;;;18.02;35.96
13476;BME280;6810;63.824;20.288;2023-04-19T12:52:09;103499.34;;;18.04;35.64
13476;BME280;6810;63.824;20.288;2023-04-19T12:54:56;103494.63;;;18.09;35.30
13476;BME280;6810;63.824;20.288;2023-04-19T12:57:43;103484.81;;;18.07;35.19
13476;BME280;6810;63.824;20.288;2023-04-19T13:00:30;103475.19;;;18.01;35.33
13476;BME280;6810;63.824;20.288;2023-04-19T13:03:17;103476.06;;;18.02;35.89
13476;BME280;6810;63.824;20.288;2023-04-19T13:06:04;103476.84;;;18.04;35.60
13476;BME280;6810;63.824;20.288;2023-04-19T13:08:51;103478.63;;;18.05;35.52
13476;BME280;6810;63.824;20.288;2023-04-19T13:11:41;103476.84;;;18.04;35.26
13476;BME280;6810;63.824;20.288;2023-04-19T13:14:28;103469.66;;;18.04;35.37
13476;BME280;6810;63.824;20.288;2023-04-19T13:17:15;103470.66;;;18.02;35.32
13476;BME280;6810;63.824;20.288;2023-04-19T13:20:02;103468.03;;;18.00;35.51
13476;BME280;6810;63.824;20.288;2023-04-19T13:22:49;103464.66;;;17.95;35.87
13476;BME280;6810;63.824;20.288;2023-04-19T13:25:36;103457.63;;;17.91;35.95
13476;BME280;6810;63.824;20.288;2023-04-19T13:28:24;103454.16;;;17.89;35.35
13476;BME280;6810;63.824;20.288;2023-04-19T13:31:11;103443.78;;;17.80;35.94
13476;BME280;6810;63.824;20.288;2023-04-19T13:33:58;103452.00;;;17.77;35.71